createdAt,value
2018-06-03T00:00:09.388Z,1015.1
2018-06-03T00:01:19.068Z,1015.12
2018-06-03T00:02:28.758Z,1015.13
2018-06-03T00:03:37.648Z,1015.12
2018-06-03T00:04:47.098Z,1015.07
2018-06-03T00:05:56.782Z,1015.1
2018-06-03T00:07:05.952Z,1015.07
2018-06-03T00:08:15.399Z,1015.06
2018-06-03T00:09:24.053Z,1015.05
2018-06-03T00:10:32.965Z,1015.06
2018-06-03T00:11:42.414Z,1015.03
2018-06-03T00:12:52.336Z,1015.02
2018-06-03T00:14:01.251Z,1015.06
2018-06-03T00:15:10.682Z,1015.04
2018-06-03T00:16:19.861Z,1015.02
2018-06-03T00:17:29.322Z,1015.02
2018-06-03T00:18:39.007Z,1015.03
2018-06-03T00:19:48.455Z,1015
2018-06-03T00:20:57.901Z,1015
2018-06-03T00:22:07.329Z,1014.96
2018-06-03T00:23:16.757Z,1015
2018-06-03T00:24:26.186Z,1014.96
2018-06-03T00:25:35.101Z,1014.96
2018-06-03T00:26:44.539Z,1014.95
2018-06-03T00:27:53.957Z,1014.95
2018-06-03T00:29:03.140Z,1014.93
2018-06-03T00:30:12.312Z,1014.94
2018-06-03T00:31:20.954Z,1014.92
2018-06-03T00:32:30.383Z,1014.92
2018-06-03T00:33:39.811Z,1014.94
2018-06-03T00:34:48.734Z,1014.96
2018-06-03T00:35:57.920Z,1014.97
2018-06-03T00:37:07.590Z,1014.98
2018-06-03T00:38:17.016Z,1014.98
2018-06-03T00:39:26.697Z,1014.93
2018-06-03T00:40:35.853Z,1014.91
2018-06-03T00:41:45.555Z,1014.91
2018-06-03T00:42:54.981Z,1014.96
2018-06-03T00:44:04.422Z,1014.89
2018-06-03T00:45:13.338Z,1014.94
2018-06-03T00:46:23.011Z,1014.93
2018-06-03T00:47:32.438Z,1014.93
2018-06-03T00:48:41.602Z,1014.95
2018-06-03T00:49:50.783Z,1014.91
2018-06-03T00:50:59.682Z,1014.9
2018-06-03T00:52:09.112Z,1014.94
2018-06-03T00:53:19.049Z,1014.91
2018-06-03T00:54:28.725Z,1014.91
2018-06-03T00:55:38.159Z,1014.95
2018-06-03T00:56:47.328Z,1014.92
2018-06-03T00:57:56.476Z,1014.94
2018-06-03T00:59:05.898Z,1014.94
2018-06-03T01:00:15.056Z,1014.94
2018-06-03T01:01:24.194Z,1014.92
2018-06-03T01:02:33.355Z,1014.93
2018-06-03T01:03:42.775Z,1014.91
2018-06-03T01:04:51.923Z,1014.88
2018-06-03T01:06:01.596Z,1014.89
2018-06-03T01:07:11.025Z,1014.91
2018-06-03T01:08:20.443Z,1014.92
2018-06-03T01:09:29.881Z,1014.9
2018-06-03T01:10:39.553Z,1014.88
2018-06-03T01:11:49.297Z,1014.88
2018-06-03T01:12:58.708Z,1014.87
2018-06-03T01:14:07.611Z,1014.84
2018-06-03T01:15:16.776Z,1014.81
2018-06-03T01:16:25.943Z,1014.81
2018-06-03T01:17:35.105Z,1014.83
2018-06-03T01:18:44.767Z,1014.82
2018-06-03T01:19:54.706Z,1014.84
2018-06-03T01:21:04.131Z,1014.84
2018-06-03T01:22:13.791Z,1014.81
2018-06-03T01:23:23.466Z,1014.81
2018-06-03T01:24:32.881Z,1014.79
2018-06-03T01:25:42.032Z,1014.8
2018-06-03T01:26:51.180Z,1014.81
2018-06-03T01:28:00.079Z,1014.75
2018-06-03T01:29:09.485Z,1014.73
2018-06-03T01:30:18.638Z,1014.73
2018-06-03T01:31:27.802Z,1014.75
2018-06-03T01:32:37.745Z,1014.72
2018-06-03T01:33:46.911Z,1014.73
2018-06-03T01:34:56.912Z,1014.72
2018-06-03T01:36:06.317Z,1014.77
2018-06-03T01:37:15.983Z,1014.75
2018-06-03T01:38:24.892Z,1014.75
2018-06-03T01:39:34.308Z,1014.77
2018-06-03T01:40:43.732Z,1014.75
2018-06-03T01:41:52.892Z,1014.76
2018-06-03T01:43:02.070Z,1014.75
2018-06-03T01:44:11.488Z,1014.75
2018-06-03T01:45:20.950Z,1014.77
2018-06-03T01:46:30.161Z,1014.75
2018-06-03T01:47:39.070Z,1014.79
2018-06-03T01:48:48.486Z,1014.71
2018-06-03T01:49:57.914Z,1014.75
2018-06-03T01:51:07.357Z,1014.69
2018-06-03T01:52:17.017Z,1014.7
2018-06-03T01:53:26.690Z,1014.7
2018-06-03T01:54:36.359Z,1014.7
2018-06-03T01:55:45.785Z,1014.67
2018-06-03T01:56:55.461Z,1014.68
2018-06-03T01:58:05.397Z,1014.7
2018-06-03T01:59:15.104Z,1014.69
2018-06-03T02:00:24.522Z,1014.71
2018-06-03T02:01:33.955Z,1014.66
2018-06-03T02:02:42.854Z,1014.66
2018-06-03T02:03:52.546Z,1014.67
2018-06-03T02:05:02.226Z,1014.63
2018-06-03T02:06:11.393Z,1014.63
2018-06-03T02:07:20.298Z,1014.59
2018-06-03T02:08:29.706Z,1014.62
2018-06-03T02:09:39.385Z,1014.6
2018-06-03T02:10:48.803Z,1014.57
2018-06-03T02:11:57.975Z,1014.55
2018-06-03T02:13:07.135Z,1014.53
2018-06-03T02:14:17.094Z,1014.54
2018-06-03T02:15:26.781Z,1014.51
2018-06-03T02:16:36.731Z,1014.52
2018-06-03T02:17:46.202Z,1014.54
2018-06-03T02:18:55.613Z,1014.5
2018-06-03T02:20:05.298Z,1014.53
2018-06-03T02:21:14.969Z,1014.51
2018-06-03T02:22:24.385Z,1014.5
2018-06-03T02:23:34.077Z,1014.51
2018-06-03T02:24:43.489Z,1014.52
2018-06-03T02:25:53.173Z,1014.51
2018-06-03T02:27:02.863Z,1014.49
2018-06-03T02:28:11.512Z,1014.46
2018-06-03T02:29:20.939Z,1014.46
2018-06-03T02:30:29.889Z,1014.43
2018-06-03T02:31:39.562Z,1014.48
2018-06-03T02:32:48.468Z,1014.47
2018-06-03T02:33:58.169Z,1014.46
2018-06-03T02:35:06.810Z,1014.42
2018-06-03T02:36:16.772Z,1014.44
2018-06-03T02:37:26.739Z,1014.44
2018-06-03T02:38:36.160Z,1014.42
2018-06-03T02:39:45.861Z,1014.43
2018-06-03T02:40:55.806Z,1014.44
2018-06-03T02:42:05.236Z,1014.44
2018-06-03T02:43:13.871Z,1014.42
2018-06-03T02:46:56.133Z,1014.45
2018-06-03T02:50:37.959Z,1014.44
2018-06-03T02:51:47.126Z,1014.45
2018-06-03T02:52:56.811Z,1014.43
2018-06-03T02:54:06.493Z,1014.41
2018-06-03T02:55:15.694Z,1014.41
2018-06-03T02:56:25.662Z,1014.39
2018-06-03T02:57:35.597Z,1014.39
2018-06-03T02:58:45.294Z,1014.41
2018-06-03T03:02:28.820Z,1014.38
2018-06-03T03:03:37.756Z,1014.35
2018-06-03T03:04:46.922Z,1014.35
2018-06-03T03:05:56.385Z,1014.38
2018-06-03T03:07:05.802Z,1014.39
2018-06-03T03:08:15.483Z,1014.39
2018-06-03T03:09:25.185Z,1014.39
2018-06-03T03:10:34.682Z,1014.38
2018-06-03T03:11:44.118Z,1014.36
2018-06-03T03:12:54.074Z,1014.36
2018-06-03T03:14:02.717Z,1014.35
2018-06-03T03:15:12.394Z,1014.36
2018-06-03T03:16:22.330Z,1014.36
2018-06-03T03:17:31.757Z,1014.39
2018-06-03T03:18:41.437Z,1014.4
2018-06-03T03:19:50.589Z,1014.4
2018-06-03T03:20:59.514Z,1014.38
2018-06-03T03:22:09.207Z,1014.46
2018-06-03T03:23:19.148Z,1014.44
2018-06-03T03:24:28.843Z,1014.46
2018-06-03T03:25:38.531Z,1014.45
2018-06-03T03:26:47.699Z,1014.44
2018-06-03T03:27:57.115Z,1014.46
2018-06-03T03:29:06.290Z,1014.46
2018-06-03T03:30:15.954Z,1014.48
2018-06-03T03:31:25.646Z,1014.45
2018-06-03T03:32:35.094Z,1014.47
2018-06-03T03:33:44.790Z,1014.45
2018-06-03T03:34:54.481Z,1014.46
2018-06-03T03:36:03.894Z,1014.41
2018-06-03T03:37:13.832Z,1014.46
2018-06-03T03:38:23.011Z,1014.4
2018-06-03T03:39:32.257Z,1014.41
2018-06-03T03:40:41.939Z,1014.41
2018-06-03T03:41:51.638Z,1014.44
2018-06-03T03:43:01.092Z,1014.43
2018-06-03T03:44:10.509Z,1014.41
2018-06-03T03:45:19.668Z,1014.41
2018-06-03T03:46:28.835Z,1014.42
2018-06-03T03:47:38.012Z,1014.43
2018-06-03T03:48:47.183Z,1014.45
2018-06-03T03:49:56.610Z,1014.46
2018-06-03T03:51:06.027Z,1014.49
2018-06-03T03:52:15.194Z,1014.47
2018-06-03T03:53:24.345Z,1014.47
2018-06-03T03:54:33.259Z,1014.49
2018-06-03T03:55:42.416Z,1014.48
2018-06-03T03:56:52.344Z,1014.48
2018-06-03T03:58:01.507Z,1014.49
2018-06-03T03:59:10.938Z,1014.45
2018-06-03T04:00:20.127Z,1014.46
2018-06-03T04:01:29.311Z,1014.46
2018-06-03T04:02:39.007Z,1014.46
2018-06-03T04:03:47.923Z,1014.49
2018-06-03T04:04:57.092Z,1014.48
2018-06-03T04:06:06.284Z,1014.43
2018-06-03T04:07:15.450Z,1014.45
2018-06-03T04:08:25.388Z,1014.43
2018-06-03T04:09:34.555Z,1014.44
2018-06-03T04:10:43.794Z,1014.44
2018-06-03T04:11:53.471Z,1014.47
2018-06-03T04:13:02.621Z,1014.44
2018-06-03T04:14:12.716Z,1014.42
2018-06-03T04:15:22.154Z,1014.46
2018-06-03T04:16:31.060Z,1014.4
2018-06-03T04:17:40.747Z,1014.4
2018-06-03T04:18:50.422Z,1014.41
2018-06-03T04:19:59.620Z,1014.43
2018-06-03T04:21:08.784Z,1014.39
2018-06-03T04:22:17.966Z,1014.39
2018-06-03T04:23:27.120Z,1014.41
2018-06-03T04:24:36.532Z,1014.37
2018-06-03T04:25:45.701Z,1014.39
2018-06-03T04:26:55.157Z,1014.37
2018-06-03T04:28:04.588Z,1014.39
2018-06-03T04:29:14.278Z,1014.39
2018-06-03T04:30:23.706Z,1014.43
2018-06-03T04:31:33.120Z,1014.37
2018-06-03T04:32:43.065Z,1014.4
2018-06-03T04:33:52.504Z,1014.4
2018-06-03T04:35:01.708Z,1014.45
2018-06-03T04:36:10.641Z,1014.48
2018-06-03T04:37:19.801Z,1014.54
2018-06-03T04:38:28.971Z,1014.51
2018-06-03T04:39:38.394Z,1014.59
2018-06-03T04:40:47.063Z,1014.55
2018-06-03T04:41:56.224Z,1014.59
2018-06-03T04:43:05.392Z,1014.59
2018-06-03T04:44:14.575Z,1014.6
2018-06-03T04:45:23.982Z,1014.56
2018-06-03T04:46:33.408Z,1014.59
2018-06-03T04:47:42.859Z,1014.56
2018-06-03T04:48:52.006Z,1014.57
2018-06-03T04:50:01.180Z,1014.61
2018-06-03T04:51:10.093Z,1014.58
2018-06-03T04:52:19.521Z,1014.61
2018-06-03T04:53:28.438Z,1014.61
2018-06-03T04:54:37.856Z,1014.57
2018-06-03T04:55:47.016Z,1014.62
2018-06-03T04:56:56.432Z,1014.62
2018-06-03T04:58:05.618Z,1014.66
2018-06-03T04:59:15.067Z,1014.62
2018-06-03T05:00:24.489Z,1014.65
2018-06-03T05:01:33.907Z,1014.63
2018-06-03T05:02:43.591Z,1014.67
2018-06-03T05:03:52.812Z,1014.7
2018-06-03T05:05:02.236Z,1014.71
2018-06-03T05:06:11.923Z,1014.69
2018-06-03T05:07:21.077Z,1014.68
2018-06-03T05:08:30.486Z,1014.72
2018-06-03T05:09:39.911Z,1014.73
2018-06-03T05:10:48.827Z,1014.79
2018-06-03T05:11:57.748Z,1014.78
2018-06-03T05:13:07.501Z,1014.8
2018-06-03T05:14:16.652Z,1014.83
2018-06-03T05:15:25.819Z,1014.81
2018-06-03T05:16:35.490Z,1014.84
2018-06-03T05:17:44.921Z,1014.83
2018-06-03T05:18:53.841Z,1014.79
2018-06-03T05:20:03.254Z,1014.84
2018-06-03T05:21:12.933Z,1014.84
2018-06-03T05:22:22.607Z,1014.81
2018-06-03T05:23:31.626Z,1014.81
2018-06-03T05:24:41.318Z,1014.83
2018-06-03T05:25:50.754Z,1014.84
2018-06-03T05:27:00.482Z,1014.88
2018-06-03T05:28:10.234Z,1014.87
2018-06-03T05:29:19.408Z,1014.89
2018-06-03T05:30:29.102Z,1014.92
2018-06-03T05:31:37.993Z,1014.95
2018-06-03T05:32:47.415Z,1014.94
2018-06-03T05:33:56.317Z,1014.96
2018-06-03T05:35:06.015Z,1014.94
2018-06-03T05:36:15.440Z,1014.95
2018-06-03T05:37:24.896Z,1014.94
2018-06-03T05:38:34.040Z,1014.95
2018-06-03T05:39:43.449Z,1014.95
2018-06-03T05:40:52.367Z,1014.93
2018-06-03T05:42:01.579Z,1014.96
2018-06-03T05:43:10.726Z,1014.95
2018-06-03T05:44:20.410Z,1014.92
2018-06-03T05:45:29.314Z,1014.93
2018-06-03T05:46:38.472Z,1014.93
2018-06-03T05:47:47.632Z,1014.92
2018-06-03T05:48:57.310Z,1014.95
2018-06-03T05:50:06.222Z,1014.99
2018-06-03T05:51:15.919Z,1014.98
2018-06-03T05:52:25.099Z,1014.95
2018-06-03T05:53:34.014Z,1014.95
2018-06-03T05:54:44.651Z,1014.97
2018-06-03T05:55:54.832Z,1014.97
2018-06-03T05:57:03.996Z,1014.98
2018-06-03T05:58:13.142Z,1015.01
2018-06-03T05:59:21.786Z,1015.03
2018-06-03T06:00:31.205Z,1014.98
2018-06-03T06:01:40.109Z,1015.03
2018-06-03T06:02:49.540Z,1015.06
2018-06-03T06:03:58.976Z,1015.04
2018-06-03T06:05:08.194Z,1015.05
2018-06-03T06:06:17.102Z,1015.08
2018-06-03T06:07:26.516Z,1015.08
2018-06-03T06:08:35.925Z,1015.08
2018-06-03T06:09:45.073Z,1015.07
2018-06-03T06:10:54.230Z,1015.06
2018-06-03T06:12:03.387Z,1015.08
2018-06-03T06:13:12.563Z,1015.08
2018-06-03T06:14:21.718Z,1015.08
2018-06-03T06:15:31.145Z,1015.08
2018-06-03T06:16:40.568Z,1015.07
2018-06-03T06:17:50.243Z,1015.03
2018-06-03T06:18:59.646Z,1015.07
2018-06-03T06:20:08.868Z,1015.1
2018-06-03T06:21:18.705Z,1015.08
2018-06-03T06:22:28.392Z,1015.07
2018-06-03T06:23:38.353Z,1015.03
2018-06-03T06:24:47.528Z,1015.1
2018-06-03T06:25:57.230Z,1015.06
2018-06-03T06:27:06.896Z,1015.1
2018-06-03T06:28:16.323Z,1015.08
2018-06-03T06:29:25.581Z,1015.12
2018-06-03T06:30:35.166Z,1015.09
2018-06-03T06:31:44.091Z,1015.1
2018-06-03T06:32:53.498Z,1015.12
2018-06-03T06:34:02.639Z,1015.11
2018-06-03T06:35:12.332Z,1015.08
2018-06-03T06:36:22.098Z,1015.13
2018-06-03T06:37:32.376Z,1015.08
2018-06-03T06:38:41.804Z,1015.1
2018-06-03T06:39:50.961Z,1015.12
2018-06-03T06:41:00.410Z,1015.11
2018-06-03T06:42:09.823Z,1015.1
2018-06-03T06:43:18.959Z,1015.13
2018-06-03T06:44:28.133Z,1015.1
2018-06-03T06:45:37.867Z,1015.14
2018-06-03T06:46:47.550Z,1015.14
2018-06-03T06:47:57.229Z,1015.17
2018-06-03T06:49:06.918Z,1015.15
2018-06-03T06:50:16.078Z,1015.17
2018-06-03T06:51:26.001Z,1015.15
2018-06-03T06:52:34.920Z,1015.15
2018-06-03T06:53:44.083Z,1015.12
2018-06-03T06:54:53.765Z,1015.12
2018-06-03T06:56:03.184Z,1015.13
2018-06-03T06:57:12.631Z,1015.15
2018-06-03T06:58:22.144Z,1015.14
2018-06-03T06:59:31.898Z,1015.15
2018-06-03T07:00:41.069Z,1015.17
2018-06-03T07:01:50.237Z,1015.16
2018-06-03T07:02:59.694Z,1015.15
2018-06-03T07:04:09.124Z,1015.17
2018-06-03T07:05:18.087Z,1015.18
2018-06-03T07:06:28.103Z,1015.16
2018-06-03T07:07:38.740Z,1015.16
2018-06-03T07:08:47.893Z,1015.2
2018-06-03T07:09:57.593Z,1015.19
2018-06-03T07:11:07.306Z,1015.14
2018-06-03T07:12:16.985Z,1015.18
2018-06-03T07:13:26.845Z,1015.18
2018-06-03T07:14:36.318Z,1015.15
2018-06-03T07:15:46.733Z,1015.13
2018-06-03T07:16:56.492Z,1015.12
2018-06-03T07:18:06.481Z,1015.13
2018-06-03T07:19:16.271Z,1015.11
2018-06-03T07:20:25.511Z,1015.11
2018-06-03T07:21:35.182Z,1015.16
2018-06-03T07:22:44.792Z,1015.16
2018-06-03T07:23:54.225Z,1015.12
2018-06-03T07:25:03.911Z,1015.16
2018-06-03T07:26:12.830Z,1015.15
2018-06-03T07:27:22.597Z,1015.15
2018-06-03T07:28:32.627Z,1015.13
2018-06-03T07:29:42.343Z,1015.14
2018-06-03T07:30:51.517Z,1015.15
2018-06-03T07:32:01.262Z,1015.16
2018-06-03T07:33:11.255Z,1015.14
2018-06-03T07:34:20.973Z,1015.15
2018-06-03T07:35:30.159Z,1015.17
2018-06-03T07:36:39.113Z,1015.15
2018-06-03T07:37:48.624Z,1015.15
2018-06-03T07:38:58.556Z,1015.16
2018-06-03T07:40:07.970Z,1015.12
2018-06-03T07:41:17.643Z,1015.14
2018-06-03T07:42:27.058Z,1015.18
2018-06-03T07:43:36.485Z,1015.15
2018-06-03T07:44:45.686Z,1015.19
2018-06-03T07:45:55.379Z,1015.16
2018-06-03T07:47:04.856Z,1015.17
2018-06-03T07:48:14.797Z,1015.14
2018-06-03T07:49:24.217Z,1015.15
2018-06-03T07:50:33.639Z,1015.16
2018-06-03T07:51:43.331Z,1015.15
2018-06-03T07:52:53.008Z,1015.16
2018-06-03T07:54:02.215Z,1015.19
2018-06-03T07:55:11.366Z,1015.16
2018-06-03T07:56:20.528Z,1015.12
2018-06-03T07:57:29.415Z,1015.13
2018-06-03T07:58:38.601Z,1015.13
2018-06-03T07:59:47.756Z,1015.13
2018-06-03T08:00:57.190Z,1015.13
2018-06-03T08:02:06.598Z,1015.15
2018-06-03T08:03:15.783Z,1015.16
2018-06-03T08:04:24.941Z,1015.15
2018-06-03T08:05:34.264Z,1015.13
2018-06-03T08:06:43.934Z,1015.13
2018-06-03T08:07:53.603Z,1015.15
2018-06-03T08:09:03.333Z,1015.14
2018-06-03T08:10:13.278Z,1015.12
2018-06-03T08:11:22.707Z,1015.11
2018-06-03T08:12:32.128Z,1015.11
2018-06-03T08:13:41.832Z,1015.09
2018-06-03T08:14:52.057Z,1015.05
2018-06-03T08:16:01.792Z,1015.06
2018-06-03T08:17:10.958Z,1015.07
2018-06-03T08:18:20.892Z,1015.02
2018-06-03T08:19:30.054Z,1015.04
2018-06-03T08:20:39.483Z,1015.02
2018-06-03T08:21:49.422Z,1015.04
2018-06-03T08:22:58.840Z,1015.04
2018-06-03T08:24:08.535Z,1015.04
2018-06-03T08:25:17.447Z,1015.03
2018-06-03T08:26:26.612Z,1015.04
2018-06-03T08:27:36.097Z,1015.04
2018-06-03T08:28:45.775Z,1015.08
2018-06-03T08:29:55.289Z,1015.05
2018-06-03T08:31:05.058Z,1015.05
2018-06-03T08:32:13.954Z,1015.04
2018-06-03T08:33:23.359Z,1015
2018-06-03T08:34:32.785Z,1015.02
2018-06-03T08:35:42.710Z,1015.01
2018-06-03T08:36:51.860Z,1015.03
2018-06-03T08:38:01.022Z,1015.02
2018-06-03T08:39:09.930Z,1015.01
2018-06-03T08:40:19.817Z,1015.02
2018-06-03T08:41:29.248Z,1015.04
2018-06-03T08:42:38.671Z,1015.04
2018-06-03T08:43:47.833Z,1014.99
2018-06-03T08:44:57.264Z,1015.02
2018-06-03T08:46:07.204Z,1015.02
2018-06-03T08:47:16.916Z,1014.98
2018-06-03T08:48:26.413Z,1014.99
2018-06-03T08:49:36.271Z,1014.97
2018-06-03T08:50:45.938Z,1014.96
2018-06-03T08:51:55.355Z,1014.97
2018-06-03T08:53:04.842Z,1014.96
2018-06-03T08:54:14.510Z,1014.96
2018-06-03T08:55:24.179Z,1014.97
2018-06-03T08:56:33.861Z,1014.93
2018-06-03T08:57:43.534Z,1014.92
2018-06-03T08:58:53.495Z,1014.94
2018-06-03T09:00:02.903Z,1014.94
2018-06-03T09:01:12.345Z,1014.92
2018-06-03T09:02:21.512Z,1014.91
2018-06-03T09:03:30.944Z,1014.92
2018-06-03T09:04:40.369Z,1014.93
2018-06-03T09:05:49.803Z,1014.9
2018-06-03T09:06:59.366Z,1014.94
2018-06-03T09:08:08.806Z,1014.93
2018-06-03T09:09:17.987Z,1014.88
2018-06-03T09:10:26.904Z,1014.89
2018-06-03T09:11:35.812Z,1014.86
2018-06-03T09:12:45.245Z,1014.85
2018-06-03T09:13:55.186Z,1014.83
2018-06-03T09:15:04.874Z,1014.83
2018-06-03T09:16:14.327Z,1014.81
2018-06-03T09:17:23.492Z,1014.78
2018-06-03T09:18:32.665Z,1014.81
2018-06-03T09:19:42.265Z,1014.82
2018-06-03T09:20:52.204Z,1014.8
2018-06-03T09:22:01.360Z,1014.77
2018-06-03T09:23:10.526Z,1014.8
2018-06-03T09:24:19.758Z,1014.78
2018-06-03T09:25:29.583Z,1014.83
2018-06-03T09:26:38.625Z,1014.82
2018-06-03T09:27:48.062Z,1014.82
2018-06-03T09:28:57.720Z,1014.82
2018-06-03T09:30:08.088Z,1014.77
2018-06-03T09:31:17.765Z,1014.78
2018-06-03T09:32:27.074Z,1014.77
2018-06-03T09:33:36.650Z,1014.74
2018-06-03T09:34:45.807Z,1014.76
2018-06-03T09:35:55.228Z,1014.75
2018-06-03T09:37:04.259Z,1014.76
2018-06-03T09:38:13.470Z,1014.74
2018-06-03T09:39:23.306Z,1014.76
2018-06-03T09:40:32.603Z,1014.74
2018-06-03T09:41:41.929Z,1014.75
2018-06-03T09:42:51.720Z,1014.71
2018-06-03T09:44:01.984Z,1014.72
2018-06-03T09:45:11.679Z,1014.71
2018-06-03T09:46:21.362Z,1014.67
2018-06-03T09:47:31.056Z,1014.67
2018-06-03T09:48:40.939Z,1014.68
2018-06-03T09:49:50.602Z,1014.66
2018-06-03T09:51:00.291Z,1014.64
2018-06-03T09:52:09.705Z,1014.68
2018-06-03T09:53:18.657Z,1014.68
2018-06-03T09:54:28.024Z,1014.61
2018-06-03T09:55:36.966Z,1014.62
2018-06-03T09:56:47.693Z,1014.61
2018-06-03T09:57:57.865Z,1014.57
2018-06-03T09:59:07.333Z,1014.6
2018-06-03T10:00:16.534Z,1014.61
2018-06-03T10:01:26.023Z,1014.63
2018-06-03T10:02:35.702Z,1014.65
2018-06-03T10:03:45.648Z,1014.6
2018-06-03T10:04:55.070Z,1014.63
2018-06-03T10:06:03.907Z,1014.61
2018-06-03T10:07:13.773Z,1014.63
2018-06-03T10:08:22.945Z,1014.61
2018-06-03T10:09:32.116Z,1014.56
2018-06-03T10:10:42.053Z,1014.6
2018-06-03T10:11:51.739Z,1014.58
2018-06-03T10:13:00.928Z,1014.57
2018-06-03T10:14:10.393Z,1014.53
2018-06-03T10:15:19.306Z,1014.52
2018-06-03T10:16:28.738Z,1014.51
2018-06-03T10:17:38.438Z,1014.51
2018-06-03T10:18:47.866Z,1014.51
2018-06-03T10:19:57.803Z,1014.53
2018-06-03T10:21:07.746Z,1014.57
2018-06-03T10:22:17.196Z,1014.55
2018-06-03T10:23:26.623Z,1014.58
2018-06-03T10:24:36.066Z,1014.55
2018-06-03T10:25:45.744Z,1014.58
2018-06-03T10:26:55.430Z,1014.56
2018-06-03T10:28:04.652Z,1014.54
2018-06-03T10:29:14.336Z,1014.54
2018-06-03T10:30:23.482Z,1014.54
2018-06-03T10:31:32.652Z,1014.49
2018-06-03T10:32:42.064Z,1014.43
2018-06-03T10:33:51.232Z,1014.47
2018-06-03T10:35:00.135Z,1014.47
2018-06-03T10:36:09.051Z,1014.49
2018-06-03T10:37:18.476Z,1014.45
2018-06-03T10:38:28.191Z,1014.45
2018-06-03T10:39:37.595Z,1014.46
2018-06-03T10:40:47.563Z,1014.45
2018-06-03T10:41:56.973Z,1014.47
2018-06-03T10:43:05.876Z,1014.43
2018-06-03T10:44:15.360Z,1014.37
2018-06-03T10:45:24.248Z,1014.41
2018-06-03T10:46:33.417Z,1014.42
2018-06-03T10:47:42.591Z,1014.4
2018-06-03T10:48:52.250Z,1014.41
2018-06-03T10:50:01.918Z,1014.39
2018-06-03T10:51:11.626Z,1014.36
2018-06-03T10:52:21.041Z,1014.37
2018-06-03T10:53:30.470Z,1014.37
2018-06-03T10:54:39.639Z,1014.35
2018-06-03T10:55:49.300Z,1014.38
2018-06-03T10:56:58.798Z,1014.38
2018-06-03T10:58:08.525Z,1014.39
2018-06-03T10:59:18.218Z,1014.41
2018-06-03T11:00:27.634Z,1014.37
2018-06-03T11:01:37.320Z,1014.38
2018-06-03T11:02:46.500Z,1014.36
2018-06-03T11:03:55.771Z,1014.33
2018-06-03T11:05:05.476Z,1014.33
2018-06-03T11:06:15.180Z,1014.31
2018-06-03T11:07:24.627Z,1014.29
2018-06-03T11:08:33.812Z,1014.25
2018-06-03T11:09:42.970Z,1014.28
2018-06-03T11:10:52.396Z,1014.27
2018-06-03T11:12:02.088Z,1014.25
2018-06-03T11:13:11.241Z,1014.25
2018-06-03T11:14:21.001Z,1014.24
2018-06-03T11:15:31.016Z,1014.19
2018-06-03T11:16:40.726Z,1014.2
2018-06-03T11:17:50.778Z,1014.22
2018-06-03T11:19:00.216Z,1014.21
2018-06-03T11:20:09.881Z,1014.2
2018-06-03T11:21:19.614Z,1014.23
2018-06-03T11:22:29.069Z,1014.22
2018-06-03T11:23:38.812Z,1014.19
2018-06-03T11:24:48.257Z,1014.24
2018-06-03T11:25:57.411Z,1014.21
2018-06-03T11:27:06.320Z,1014.15
2018-06-03T11:28:15.561Z,1014.19
2018-06-03T11:29:25.113Z,1014.16
2018-06-03T11:30:34.819Z,1014.15
2018-06-03T11:31:44.254Z,1014.19
2018-06-03T11:32:53.440Z,1014.18
2018-06-03T11:34:02.657Z,1014.15
2018-06-03T11:35:12.128Z,1014.17
2018-06-03T11:36:21.289Z,1014.17
2018-06-03T11:37:30.974Z,1014.17
2018-06-03T11:38:40.654Z,1014.17
2018-06-03T11:39:49.819Z,1014.14
2018-06-03T11:40:59.252Z,1014.13
2018-06-03T11:42:08.417Z,1014.1
2018-06-03T11:43:17.835Z,1014.12
2018-06-03T11:44:26.724Z,1014.12
2018-06-03T11:45:36.146Z,1014.08
2018-06-03T11:46:45.342Z,1014.11
2018-06-03T11:47:54.495Z,1014.1
2018-06-03T11:49:04.434Z,1014.05
2018-06-03T11:50:13.594Z,1014.07
2018-06-03T11:51:23.018Z,1014.12
2018-06-03T11:52:32.534Z,1014.05
2018-06-03T11:53:41.767Z,1014.05
2018-06-03T11:54:51.603Z,1014.07
2018-06-03T11:56:01.289Z,1014.05
2018-06-03T11:57:10.497Z,1014.04
2018-06-03T11:58:20.171Z,1014.01
2018-06-03T11:59:30.117Z,1013.99
2018-06-03T12:00:39.023Z,1013.99
2018-06-03T12:01:48.526Z,1014.01
2018-06-03T12:02:58.709Z,1014.02
2018-06-03T12:04:08.168Z,1014.04
2018-06-03T12:05:17.874Z,1014.05
2018-06-03T12:06:27.057Z,1014.01
2018-06-03T12:07:36.486Z,1014.04
2018-06-03T12:08:46.146Z,1014.02
2018-06-03T12:09:55.820Z,1013.95
2018-06-03T12:11:05.494Z,1013.96
2018-06-03T12:12:15.166Z,1013.99
2018-06-03T12:13:24.829Z,1013.96
2018-06-03T12:14:33.990Z,1013.95
2018-06-03T12:15:43.430Z,1013.99
2018-06-03T12:16:53.122Z,1014
2018-06-03T12:18:02.541Z,1014.01
2018-06-03T12:19:11.711Z,1014.03
2018-06-03T12:20:21.127Z,1014.03
2018-06-03T12:21:30.300Z,1014.02
2018-06-03T12:22:39.470Z,1014.01
2018-06-03T12:23:48.898Z,1013.95
2018-06-03T12:24:58.575Z,1013.97
2018-06-03T12:26:07.469Z,1013.98
2018-06-03T12:27:16.871Z,1013.97
2018-06-03T12:28:26.602Z,1013.92
2018-06-03T12:29:36.381Z,1013.95
2018-06-03T12:30:45.542Z,1013.91
2018-06-03T12:31:54.974Z,1013.9
2018-06-03T12:33:04.661Z,1013.87
2018-06-03T12:34:14.070Z,1013.87
2018-06-03T12:35:23.219Z,1013.93
2018-06-03T12:36:32.667Z,1013.88
2018-06-03T12:37:42.395Z,1013.9
2018-06-03T12:38:52.071Z,1013.9
2018-06-03T12:40:01.497Z,1013.88
2018-06-03T12:41:11.171Z,1013.89
2018-06-03T12:42:20.601Z,1013.91
2018-06-03T12:43:29.510Z,1013.87
2018-06-03T12:44:39.488Z,1013.82
2018-06-03T12:45:48.692Z,1013.82
2018-06-03T12:46:58.144Z,1013.78
2018-06-03T12:48:07.594Z,1013.78
2018-06-03T12:49:16.492Z,1013.8
2018-06-03T12:50:25.387Z,1013.75
2018-06-03T12:51:34.550Z,1013.79
2018-06-03T12:52:43.747Z,1013.73
2018-06-03T12:53:52.654Z,1013.72
2018-06-03T12:55:01.558Z,1013.72
2018-06-03T12:56:11.010Z,1013.71
2018-06-03T12:57:20.427Z,1013.67
2018-06-03T12:58:29.599Z,1013.66
2018-06-03T12:59:39.007Z,1013.73
2018-06-03T13:00:48.158Z,1013.73
2018-06-03T13:01:57.843Z,1013.72
2018-06-03T13:03:07.287Z,1013.74
2018-06-03T13:04:16.766Z,1013.72
2018-06-03T13:05:25.939Z,1013.7
2018-06-03T13:06:35.095Z,1013.67
2018-06-03T13:07:44.565Z,1013.71
2018-06-03T13:08:54.030Z,1013.68
2018-06-03T13:10:03.463Z,1013.73
2018-06-03T13:11:12.641Z,1013.7
2018-06-03T13:12:22.081Z,1013.74
2018-06-03T13:13:31.775Z,1013.76
2018-06-03T13:14:40.944Z,1013.71
2018-06-03T13:15:50.126Z,1013.7
2018-06-03T13:16:59.303Z,1013.71
2018-06-03T13:18:09.060Z,1013.66
2018-06-03T13:19:18.637Z,1013.63
2018-06-03T13:20:27.815Z,1013.64
2018-06-03T13:21:37.105Z,1013.64
2018-06-03T13:22:47.052Z,1013.61
2018-06-03T13:23:55.970Z,1013.6
2018-06-03T13:25:05.148Z,1013.58
2018-06-03T13:26:14.316Z,1013.56
2018-06-03T13:27:23.505Z,1013.54
2018-06-03T13:28:32.947Z,1013.52
2018-06-03T13:29:41.940Z,1013.55
2018-06-03T13:30:51.728Z,1013.49
2018-06-03T13:32:01.719Z,1013.5
2018-06-03T13:33:11.784Z,1013.47
2018-06-03T13:34:21.097Z,1013.39
2018-06-03T13:35:30.425Z,1013.45
2018-06-03T13:36:40.185Z,1013.37
2018-06-03T13:37:49.744Z,1013.43
2018-06-03T13:38:59.013Z,1013.37
2018-06-03T13:40:08.590Z,1013.29
2018-06-03T13:41:18.290Z,1013.31
2018-06-03T13:42:27.210Z,1013.22
2018-06-03T13:43:36.652Z,1013.24
2018-06-03T13:44:45.959Z,1013.25
2018-06-03T13:45:55.948Z,1013.22
2018-06-03T13:47:05.258Z,1013.18
2018-06-03T13:48:14.973Z,1013.21
2018-06-03T13:49:24.209Z,1013.15
2018-06-03T13:50:34.493Z,1013.18
2018-06-03T13:51:43.553Z,1013.06
2018-06-03T13:52:52.710Z,1013.06
2018-06-03T13:54:02.731Z,1013.09
2018-06-03T13:55:12.219Z,1013.04
2018-06-03T13:56:23.001Z,1013.06
2018-06-03T13:57:32.263Z,1012.99
2018-06-03T13:58:42.490Z,1012.94
2018-06-03T13:59:51.956Z,1012.96
2018-06-03T14:02:10.483Z,1012.95
2018-06-03T14:03:20.198Z,1012.95
2018-06-03T14:04:29.696Z,1012.92
2018-06-03T14:05:38.625Z,1012.91
2018-06-03T14:06:47.811Z,1012.83
2018-06-03T14:07:57.253Z,1012.82
2018-06-03T14:09:06.954Z,1012.79
2018-06-03T14:10:16.384Z,1012.78